sensor_id;sensor_type;location;lat;lon;timestamp;P1;durP1;ratioP1;P2;durP2;ratioP2
42742;SDS011;28397;44.552;-0.848;2022-12-05T00:01:16;12.35;;;10.20;;
42742;SDS011;28397;44.552;-0.848;2022-12-05T00:03:42;11.48;;;10.25;;
42742;SDS011;28397;44.552;-0.848;2022-12-05T00:06:08;12.10;;;10.38;;
42742;SDS011;28397;44.552;-0.848;2022-12-05T00:08:34;12.15;;;10.95;;
42742;SDS011;28397;44.552;-0.848;2022-12-05T00:11:00;13.30;;;10.57;;
42742;SDS011;28397;44.552;-0.848;2022-12-05T00:13:26;12.38;;;11.07;;
42742;SDS011;28397;44.552;-0.848;2022-12-05T00:15:51;12.00;;;10.70;;
42742;SDS011;28397;44.552;-0.848;2022-12-05T00:18:17;12.10;;;10.77;;
42742;SDS011;28397;44.552;-0.848;2022-12-05T00:20:43;12.95;;;11.40;;
42742;SDS011;28397;44.552;-0.848;2022-12-05T00:23:10;14.00;;;12.00;;
42742;SDS011;28397;44.552;-0.848;2022-12-05T00:25:36;15.23;;;11.63;;
42742;SDS011;28397;44.552;-0.848;2022-12-05T00:28:02;14.43;;;12.48;;
42742;SDS011;28397;44.552;-0.848;2022-12-05T00:30:27;15.05;;;12.45;;
42742;SDS011;28397;44.552;-0.848;2022-12-05T00:32:53;15.85;;;13.73;;
42742;SDS011;28397;44.552;-0.848;2022-12-05T00:35:19;16.48;;;12.38;;
42742;SDS011;28397;44.552;-0.848;2022-12-05T00:37:44;18.95;;;13.43;;
42742;SDS011;28397;44.552;-0.848;2022-12-05T00:40:11;15.00;;;12.38;;
42742;SDS011;28397;44.552;-0.848;2022-12-05T00:42:37;13.85;;;11.68;;
42742;SDS011;28397;44.552;-0.848;2022-12-05T00:45:03;14.32;;;11.40;;
42742;SDS011;28397;44.552;-0.848;2022-12-05T00:47:29;13.52;;;11.73;;
42742;SDS011;28397;44.552;-0.848;2022-12-05T00:49:55;15.32;;;12.35;;
42742;SDS011;28397;44.552;-0.848;2022-12-05T00:52:21;13.52;;;11.68;;
42742;SDS011;28397;44.552;-0.848;2022-12-05T00:54:46;13.75;;;11.23;;
42742;SDS011;28397;44.552;-0.848;2022-12-05T00:57:12;13.65;;;12.05;;
42742;SDS011;28397;44.552;-0.848;2022-12-05T00:59:38;14.98;;;12.02;;
42742;SDS011;28397;44.552;-0.848;2022-12-05T01:02:04;13.43;;;11.48;;
42742;SDS011;28397;44.552;-0.848;2022-12-05T01:04:30;13.63;;;11.52;;
42742;SDS011;28397;44.552;-0.848;2022-12-05T01:06:56;13.63;;;12.23;;
42742;SDS011;28397;44.552;-0.848;2022-12-05T01:09:23;12.75;;;11.05;;
42742;SDS011;28397;44.552;-0.848;2022-12-05T01:11:49;13.35;;;11.68;;
42742;SDS011;28397;44.552;-0.848;2022-12-05T01:14:16;15.52;;;12.55;;
42742;SDS011;28397;44.552;-0.848;2022-12-05T01:16:44;13.80;;;11.38;;
42742;SDS011;28397;44.552;-0.848;2022-12-05T01:19:15;14.07;;;12.55;;
42742;SDS011;28397;44.552;-0.848;2022-12-05T01:21:43;13.68;;;10.77;;
42742;SDS011;28397;44.552;-0.848;2022-12-05T01:24:09;14.75;;;11.98;;
42742;SDS011;28397;44.552;-0.848;2022-12-05T01:26:35;14.52;;;12.45;;
42742;SDS011;28397;44.552;-0.848;2022-12-05T01:29:02;13.85;;;11.15;;
42742;SDS011;28397;44.552;-0.848;2022-12-05T01:31:29;14.10;;;12.00;;
42742;SDS011;28397;44.552;-0.848;2022-12-05T01:33:57;15.50;;;13.07;;
42742;SDS011;28397;44.552;-0.848;2022-12-05T01:36:25;15.32;;;12.70;;
42742;SDS011;28397;44.552;-0.848;2022-12-05T01:38:51;14.48;;;12.90;;
42742;SDS011;28397;44.552;-0.848;2022-12-05T01:41:25;16.90;;;13.50;;
42742;SDS011;28397;44.552;-0.848;2022-12-05T01:43:54;14.63;;;12.48;;
42742;SDS011;28397;44.552;-0.848;2022-12-05T01:46:26;15.50;;;13.32;;
42742;SDS011;28397;44.552;-0.848;2022-12-05T01:48:57;15.32;;;13.60;;
42742;SDS011;28397;44.552;-0.848;2022-12-05T01:51:40;14.48;;;12.90;;
42742;SDS011;28397;44.552;-0.848;2022-12-05T01:54:11;16.90;;;13.73;;
42742;SDS011;28397;44.552;-0.848;2022-12-05T01:56:39;14.98;;;13.30;;
42742;SDS011;28397;44.552;-0.848;2022-12-05T01:59:08;16.42;;;14.15;;
42742;SDS011;28397;44.552;-0.848;2022-12-05T02:01:35;17.17;;;14.95;;
42742;SDS011;28397;44.552;-0.848;2022-12-05T02:04:02;16.42;;;14.00;;
42742;SDS011;28397;44.552;-0.848;2022-12-05T02:06:28;16.27;;;13.80;;
42742;SDS011;28397;44.552;-0.848;2022-12-05T02:08:54;17.65;;;14.10;;
42742;SDS011;28397;44.552;-0.848;2022-12-05T02:11:20;16.88;;;13.50;;
42742;SDS011;28397;44.552;-0.848;2022-12-05T02:33:43;18.58;;;15.32;;
42742;SDS011;28397;44.552;-0.848;2022-12-05T02:36:10;18.58;;;14.00;;
42742;SDS011;28397;44.552;-0.848;2022-12-05T02:38:56;17.88;;;14.73;;
42742;SDS011;28397;44.552;-0.848;2022-12-05T02:41:34;18.33;;;14.07;;
42742;SDS011;28397;44.552;-0.848;2022-12-05T02:44:13;17.08;;;14.07;;
42742;SDS011;28397;44.552;-0.848;2022-12-05T02:46:48;21.75;;;16.58;;
42742;SDS011;28397;44.552;-0.848;2022-12-05T02:49:18;19.67;;;16.67;;
42742;SDS011;28397;44.552;-0.848;2022-12-05T02:51:47;18.48;;;15.65;;
42742;SDS011;28397;44.552;-0.848;2022-12-05T02:54:18;18.52;;;16.38;;
42742;SDS011;28397;44.552;-0.848;2022-12-05T02:56:47;20.55;;;17.48;;
42742;SDS011;28397;44.552;-0.848;2022-12-05T02:59:15;19.15;;;16.58;;
42742;SDS011;28397;44.552;-0.848;2022-12-05T03:01:42;19.70;;;17.30;;
42742;SDS011;28397;44.552;-0.848;2022-12-05T03:04:10;20.42;;;18.20;;
42742;SDS011;28397;44.552;-0.848;2022-12-05T03:06:41;20.23;;;17.63;;
42742;SDS011;28397;44.552;-0.848;2022-12-05T03:09:24;19.65;;;15.95;;
42742;SDS011;28397;44.552;-0.848;2022-12-05T03:11:53;18.40;;;15.70;;
42742;SDS011;28397;44.552;-0.848;2022-12-05T03:14:35;19.30;;;14.02;;
42742;SDS011;28397;44.552;-0.848;2022-12-05T03:17:06;19.00;;;15.02;;
42742;SDS011;28397;44.552;-0.848;2022-12-05T03:24:57;15.77;;;13.70;;
42742;SDS011;28397;44.552;-0.848;2022-12-05T03:30:07;14.55;;;12.30;;
42742;SDS011;28397;44.552;-0.848;2022-12-05T03:35:07;13.10;;;11.15;;
42742;SDS011;28397;44.552;-0.848;2022-12-05T03:38:30;15.73;;;12.05;;
42742;SDS011;28397;44.552;-0.848;2022-12-05T03:41:08;15.25;;;12.40;;
42742;SDS011;28397;44.552;-0.848;2022-12-05T03:46:39;16.85;;;12.88;;
42742;SDS011;28397;44.552;-0.848;2022-12-05T03:49:21;18.83;;;13.70;;
42742;SDS011;28397;44.552;-0.848;2022-12-05T03:51:56;19.80;;;15.23;;
42742;SDS011;28397;44.552;-0.848;2022-12-05T03:54:28;14.98;;;12.73;;
42742;SDS011;28397;44.552;-0.848;2022-12-05T03:57:03;14.32;;;10.57;;
42742;SDS011;28397;44.552;-0.848;2022-12-05T04:02:20;13.55;;;10.88;;
42742;SDS011;28397;44.552;-0.848;2022-12-05T04:05:03;15.20;;;11.88;;
42742;SDS011;28397;44.552;-0.848;2022-12-05T04:07:33;20.17;;;14.93;;
42742;SDS011;28397;44.552;-0.848;2022-12-05T04:10:02;15.52;;;11.55;;
42742;SDS011;28397;44.552;-0.848;2022-12-05T04:12:34;15.73;;;11.88;;
42742;SDS011;28397;44.552;-0.848;2022-12-05T04:15:07;18.73;;;12.60;;
42742;SDS011;28397;44.552;-0.848;2022-12-05T04:20:24;18.08;;;13.77;;
42742;SDS011;28397;44.552;-0.848;2022-12-05T04:23:35;17.33;;;12.85;;
42742;SDS011;28397;44.552;-0.848;2022-12-05T04:26:03;17.30;;;12.32;;
42742;SDS011;28397;44.552;-0.848;2022-12-05T04:28:50;15.20;;;11.85;;
42742;SDS011;28397;44.552;-0.848;2022-12-05T04:31:31;20.20;;;13.82;;
42742;SDS011;28397;44.552;-0.848;2022-12-05T04:34:04;15.07;;;12.18;;
42742;SDS011;28397;44.552;-0.848;2022-12-05T04:36:41;18.50;;;11.90;;
42742;SDS011;28397;44.552;-0.848;2022-12-05T04:41:55;17.13;;;12.43;;
42742;SDS011;28397;44.552;-0.848;2022-12-05T04:44:27;16.23;;;13.20;;
42742;SDS011;28397;44.552;-0.848;2022-12-05T04:46:57;17.48;;;12.88;;
42742;SDS011;28397;44.552;-0.848;2022-12-05T04:49:26;17.38;;;12.68;;
42742;SDS011;28397;44.552;-0.848;2022-12-05T04:51:56;19.17;;;12.68;;
42742;SDS011;28397;44.552;-0.848;2022-12-05T04:54:27;17.92;;;13.45;;
42742;SDS011;28397;44.552;-0.848;2022-12-05T04:57:04;17.83;;;12.68;;
42742;SDS011;28397;44.552;-0.848;2022-12-05T04:59:36;16.25;;;12.85;;
42742;SDS011;28397;44.552;-0.848;2022-12-05T05:02:05;16.17;;;12.00;;
42742;SDS011;28397;44.552;-0.848;2022-12-05T05:04:54;14.85;;;11.73;;
42742;SDS011;28397;44.552;-0.848;2022-12-05T05:07:21;20.17;;;12.13;;
42742;SDS011;28397;44.552;-0.848;2022-12-05T05:09:47;16.75;;;12.60;;
42742;SDS011;28397;44.552;-0.848;2022-12-05T05:12:13;17.05;;;12.93;;
42742;SDS011;28397;44.552;-0.848;2022-12-05T05:14:39;19.38;;;13.13;;
42742;SDS011;28397;44.552;-0.848;2022-12-05T05:17:05;16.60;;;13.90;;
42742;SDS011;28397;44.552;-0.848;2022-12-05T05:19:30;18.85;;;13.82;;
42742;SDS011;28397;44.552;-0.848;2022-12-05T05:21:56;16.92;;;13.80;;
42742;SDS011;28397;44.552;-0.848;2022-12-05T05:24:22;17.27;;;13.75;;
42742;SDS011;28397;44.552;-0.848;2022-12-05T05:26:50;16.25;;;13.40;;
42742;SDS011;28397;44.552;-0.848;2022-12-05T05:29:16;16.33;;;13.32;;
42742;SDS011;28397;44.552;-0.848;2022-12-05T05:31:42;17.27;;;13.90;;
42742;SDS011;28397;44.552;-0.848;2022-12-05T05:34:09;17.50;;;13.60;;
42742;SDS011;28397;44.552;-0.848;2022-12-05T05:36:36;18.40;;;14.50;;
42742;SDS011;28397;44.552;-0.848;2022-12-05T05:39:02;19.48;;;14.38;;
42742;SDS011;28397;44.552;-0.848;2022-12-05T05:41:31;19.63;;;14.70;;
42742;SDS011;28397;44.552;-0.848;2022-12-05T05:43:59;18.80;;;14.32;;
42742;SDS011;28397;44.552;-0.848;2022-12-05T05:46:26;18.17;;;14.77;;
42742;SDS011;28397;44.552;-0.848;2022-12-05T05:48:54;19.38;;;15.77;;
42742;SDS011;28397;44.552;-0.848;2022-12-05T05:51:20;19.00;;;15.82;;
42742;SDS011;28397;44.552;-0.848;2022-12-05T05:53:47;18.17;;;15.65;;
42742;SDS011;28397;44.552;-0.848;2022-12-05T05:56:14;18.65;;;14.45;;
42742;SDS011;28397;44.552;-0.848;2022-12-05T05:58:42;18.35;;;14.10;;
42742;SDS011;28397;44.552;-0.848;2022-12-05T06:01:15;19.02;;;14.25;;
42742;SDS011;28397;44.552;-0.848;2022-12-05T06:03:44;20.05;;;15.52;;
42742;SDS011;28397;44.552;-0.848;2022-12-05T06:06:11;19.95;;;16.08;;
42742;SDS011;28397;44.552;-0.848;2022-12-05T06:08:39;18.67;;;14.90;;
42742;SDS011;28397;44.552;-0.848;2022-12-05T06:11:07;18.30;;;15.45;;
42742;SDS011;28397;44.552;-0.848;2022-12-05T06:13:35;21.50;;;16.48;;
42742;SDS011;28397;44.552;-0.848;2022-12-05T06:16:01;21.42;;;16.08;;
42742;SDS011;28397;44.552;-0.848;2022-12-05T06:18:29;21.35;;;15.88;;
42742;SDS011;28397;44.552;-0.848;2022-12-05T06:20:55;20.77;;;16.45;;
42742;SDS011;28397;44.552;-0.848;2022-12-05T06:23:22;21.35;;;17.40;;
42742;SDS011;28397;44.552;-0.848;2022-12-05T06:25:49;22.33;;;17.02;;
42742;SDS011;28397;44.552;-0.848;2022-12-05T06:28:17;21.00;;;16.73;;
42742;SDS011;28397;44.552;-0.848;2022-12-05T06:30:43;22.35;;;17.55;;
42742;SDS011;28397;44.552;-0.848;2022-12-05T06:33:10;23.40;;;17.83;;
42742;SDS011;28397;44.552;-0.848;2022-12-05T06:35:36;23.17;;;18.73;;
42742;SDS011;28397;44.552;-0.848;2022-12-05T06:38:02;23.25;;;18.30;;
42742;SDS011;28397;44.552;-0.848;2022-12-05T06:40:29;27.40;;;20.15;;
42742;SDS011;28397;44.552;-0.848;2022-12-05T06:42:55;23.08;;;19.67;;
42742;SDS011;28397;44.552;-0.848;2022-12-05T06:45:21;24.58;;;18.02;;
42742;SDS011;28397;44.552;-0.848;2022-12-05T06:47:46;24.45;;;18.35;;
42742;SDS011;28397;44.552;-0.848;2022-12-05T06:50:12;24.13;;;17.52;;
42742;SDS011;28397;44.552;-0.848;2022-12-05T06:52:38;23.83;;;18.63;;
42742;SDS011;28397;44.552;-0.848;2022-12-05T06:55:04;25.25;;;20.75;;
42742;SDS011;28397;44.552;-0.848;2022-12-05T06:57:30;23.83;;;18.02;;
42742;SDS011;28397;44.552;-0.848;2022-12-05T06:59:55;25.80;;;18.75;;
42742;SDS011;28397;44.552;-0.848;2022-12-05T07:02:40;21.15;;;16.25;;
42742;SDS011;28397;44.552;-0.848;2022-12-05T07:05:08;21.55;;;17.40;;
42742;SDS011;28397;44.552;-0.848;2022-12-05T07:07:35;19.80;;;15.68;;
42742;SDS011;28397;44.552;-0.848;2022-12-05T07:10:01;20.58;;;16.13;;
42742;SDS011;28397;44.552;-0.848;2022-12-05T07:12:26;21.10;;;16.20;;
42742;SDS011;28397;44.552;-0.848;2022-12-05T07:14:52;21.25;;;16.75;;
42742;SDS011;28397;44.552;-0.848;2022-12-05T07:17:18;23.48;;;17.67;;
42742;SDS011;28397;44.552;-0.848;2022-12-05T07:19:48;23.73;;;17.90;;
42742;SDS011;28397;44.552;-0.848;2022-12-05T07:22:15;22.65;;;18.27;;
42742;SDS011;28397;44.552;-0.848;2022-12-05T07:24:42;27.45;;;20.33;;
42742;SDS011;28397;44.552;-0.848;2022-12-05T07:27:09;24.73;;;18.95;;
42742;SDS011;28397;44.552;-0.848;2022-12-05T07:29:34;22.98;;;17.85;;
42742;SDS011;28397;44.552;-0.848;2022-12-05T07:32:00;26.25;;;20.30;;
42742;SDS011;28397;44.552;-0.848;2022-12-05T07:34:26;26.45;;;19.92;;
42742;SDS011;28397;44.552;-0.848;2022-12-05T07:36:52;25.05;;;19.40;;
42742;SDS011;28397;44.552;-0.848;2022-12-05T07:39:17;23.92;;;18.52;;
42742;SDS011;28397;44.552;-0.848;2022-12-05T07:41:43;21.67;;;16.08;;
42742;SDS011;28397;44.552;-0.848;2022-12-05T07:44:09;21.38;;;16.90;;
42742;SDS011;28397;44.552;-0.848;2022-12-05T07:46:36;20.75;;;16.10;;
42742;SDS011;28397;44.552;-0.848;2022-12-05T07:49:02;21.50;;;16.15;;
42742;SDS011;28397;44.552;-0.848;2022-12-05T07:51:28;21.38;;;16.95;;
42742;SDS011;28397;44.552;-0.848;2022-12-05T07:53:54;26.15;;;18.98;;
42742;SDS011;28397;44.552;-0.848;2022-12-05T07:56:20;22.35;;;18.20;;
42742;SDS011;28397;44.552;-0.848;2022-12-05T07:58:47;22.45;;;17.33;;
42742;SDS011;28397;44.552;-0.848;2022-12-05T08:01:15;21.23;;;16.58;;
42742;SDS011;28397;44.552;-0.848;2022-12-05T08:03:46;21.70;;;17.15;;
42742;SDS011;28397;44.552;-0.848;2022-12-05T08:06:13;22.90;;;17.23;;
42742;SDS011;28397;44.552;-0.848;2022-12-05T08:08:41;19.67;;;16.42;;
42742;SDS011;28397;44.552;-0.848;2022-12-05T08:11:41;13.90;;;12.50;;
42742;SDS011;28397;44.552;-0.848;2022-12-05T08:14:00;13.20;;;11.80;;
42742;SDS011;28397;44.552;-0.848;2022-12-05T08:16:27;15.25;;;13.07;;
42742;SDS011;28397;44.552;-0.848;2022-12-05T08:18:54;12.48;;;11.18;;
42742;SDS011;28397;44.552;-0.848;2022-12-05T08:21:20;13.10;;;11.70;;
42742;SDS011;28397;44.552;-0.848;2022-12-05T08:23:49;11.75;;;10.32;;
42742;SDS011;28397;44.552;-0.848;2022-12-05T08:26:19;11.23;;;10.02;;
42742;SDS011;28397;44.552;-0.848;2022-12-05T08:28:55;11.38;;;10.27;;
42742;SDS011;28397;44.552;-0.848;2022-12-05T08:31:23;10.93;;;9.82;;
42742;SDS011;28397;44.552;-0.848;2022-12-05T08:33:51;12.15;;;10.82;;
42742;SDS011;28397;44.552;-0.848;2022-12-05T08:36:17;10.98;;;9.98;;
42742;SDS011;28397;44.552;-0.848;2022-12-05T08:38:44;11.07;;;9.98;;
42742;SDS011;28397;44.552;-0.848;2022-12-05T08:41:11;11.85;;;10.13;;
42742;SDS011;28397;44.552;-0.848;2022-12-05T08:43:39;13.70;;;11.18;;
42742;SDS011;28397;44.552;-0.848;2022-12-05T08:46:05;10.85;;;9.63;;
42742;SDS011;28397;44.552;-0.848;2022-12-05T08:48:32;10.23;;;9.13;;
42742;SDS011;28397;44.552;-0.848;2022-12-05T08:51:02;10.25;;;9.25;;
42742;SDS011;28397;44.552;-0.848;2022-12-05T08:53:29;10.52;;;9.50;;
42742;SDS011;28397;44.552;-0.848;2022-12-05T08:55:58;9.77;;;8.88;;
42742;SDS011;28397;44.552;-0.848;2022-12-05T08:58:28;9.83;;;8.47;;
42742;SDS011;28397;44.552;-0.848;2022-12-05T09:01:02;10.27;;;9.07;;
42742;SDS011;28397;44.552;-0.848;2022-12-05T09:03:29;9.93;;;9.00;;
42742;SDS011;28397;44.552;-0.848;2022-12-05T09:06:03;9.40;;;8.45;;
42742;SDS011;28397;44.552;-0.848;2022-12-05T09:08:33;9.23;;;8.43;;
42742;SDS011;28397;44.552;-0.848;2022-12-05T09:11:03;9.98;;;8.98;;
42742;SDS011;28397;44.552;-0.848;2022-12-05T09:13:30;9.50;;;8.60;;
42742;SDS011;28397;44.552;-0.848;2022-12-05T09:15:56;9.05;;;8.18;;
42742;SDS011;28397;44.552;-0.848;2022-12-05T09:18:21;9.93;;;8.93;;
42742;SDS011;28397;44.552;-0.848;2022-12-05T09:20:47;9.82;;;8.52;;
42742;SDS011;28397;44.552;-0.848;2022-12-05T09:23:13;10.90;;;8.20;;
42742;SDS011;28397;44.552;-0.848;2022-12-05T09:25:38;9.23;;;8.32;;
42742;SDS011;28397;44.552;-0.848;2022-12-05T09:28:04;9.95;;;8.95;;
42742;SDS011;28397;44.552;-0.848;2022-12-05T09:30:30;8.65;;;7.85;;
42742;SDS011;28397;44.552;-0.848;2022-12-05T09:32:55;9.30;;;8.40;;
42742;SDS011;28397;44.552;-0.848;2022-12-05T09:35:21;8.88;;;8.07;;
42742;SDS011;28397;44.552;-0.848;2022-12-05T09:37:46;9.20;;;8.30;;
42742;SDS011;28397;44.552;-0.848;2022-12-05T09:40:16;8.82;;;8.02;;
42742;SDS011;28397;44.552;-0.848;2022-12-05T09:42:46;8.43;;;7.63;;
42742;SDS011;28397;44.552;-0.848;2022-12-05T09:45:38;9.13;;;8.30;;
42742;SDS011;28397;44.552;-0.848;2022-12-05T09:50:46;8.50;;;7.65;;
42742;SDS011;28397;44.552;-0.848;2022-12-05T09:58:51;8.50;;;7.70;;
42742;SDS011;28397;44.552;-0.848;2022-12-05T10:15:25;7.45;;;6.75;;
42742;SDS011;28397;44.552;-0.848;2022-12-05T10:20:46;7.28;;;6.57;;
42742;SDS011;28397;44.552;-0.848;2022-12-05T10:24:01;9.75;;;8.20;;
42742;SDS011;28397;44.552;-0.848;2022-12-05T10:26:22;8.05;;;6.55;;
42742;SDS011;28397;44.552;-0.848;2022-12-05T10:31:25;8.02;;;6.30;;
42742;SDS011;28397;44.552;-0.848;2022-12-05T10:36:50;7.57;;;6.78;;
42742;SDS011;28397;44.552;-0.848;2022-12-05T10:39:22;8.32;;;6.53;;
42742;SDS011;28397;44.552;-0.848;2022-12-05T10:41:48;7.13;;;6.53;;
42742;SDS011;28397;44.552;-0.848;2022-12-05T10:44:14;6.85;;;6.25;;
42742;SDS011;28397;44.552;-0.848;2022-12-05T10:46:40;6.82;;;6.22;;
42742;SDS011;28397;44.552;-0.848;2022-12-05T10:49:09;6.70;;;6.10;;
42742;SDS011;28397;44.552;-0.848;2022-12-05T10:51:36;8.52;;;7.72;;
42742;SDS011;28397;44.552;-0.848;2022-12-05T10:54:12;7.70;;;6.75;;
42742;SDS011;28397;44.552;-0.848;2022-12-05T10:56:46;7.00;;;6.40;;
42742;SDS011;28397;44.552;-0.848;2022-12-05T10:59:18;6.88;;;6.28;;
42742;SDS011;28397;44.552;-0.848;2022-12-05T11:01:55;7.60;;;6.90;;
42742;SDS011;28397;44.552;-0.848;2022-12-05T11:04:27;6.32;;;5.78;;
42742;SDS011;28397;44.552;-0.848;2022-12-05T11:07:06;8.15;;;6.25;;
42742;SDS011;28397;44.552;-0.848;2022-12-05T11:09:47;6.82;;;6.03;;
42742;SDS011;28397;44.552;-0.848;2022-12-05T11:12:17;6.80;;;6.10;;
42742;SDS011;28397;44.552;-0.848;2022-12-05T11:17:25;7.28;;;6.57;;
42742;SDS011;28397;44.552;-0.848;2022-12-05T11:19:54;7.85;;;6.30;;
42742;SDS011;28397;44.552;-0.848;2022-12-05T11:22:20;6.55;;;5.85;;
42742;SDS011;28397;44.552;-0.848;2022-12-05T11:24:56;6.63;;;6.03;;
42742;SDS011;28397;44.552;-0.848;2022-12-05T11:27:26;6.93;;;6.32;;
42742;SDS011;28397;44.552;-0.848;2022-12-05T11:30:13;6.55;;;6.00;;
42742;SDS011;28397;44.552;-0.848;2022-12-05T11:32:43;6.50;;;5.75;;
42742;SDS011;28397;44.552;-0.848;2022-12-05T11:38:02;6.35;;;5.63;;
42742;SDS011;28397;44.552;-0.848;2022-12-05T11:40:32;6.20;;;5.60;;
42742;SDS011;28397;44.552;-0.848;2022-12-05T11:45:59;8.90;;;8.00;;
42742;SDS011;28397;44.552;-0.848;2022-12-05T12:10:40;6.55;;;5.35;;
42742;SDS011;28397;44.552;-0.848;2022-12-05T12:21:55;5.88;;;5.38;;
42742;SDS011;28397;44.552;-0.848;2022-12-05T12:25:41;6.05;;;5.45;;
42742;SDS011;28397;44.552;-0.848;2022-12-05T12:33:52;7.25;;;6.07;;
42742;SDS011;28397;44.552;-0.848;2022-12-05T12:36:27;6.40;;;5.80;;
42742;SDS011;28397;44.552;-0.848;2022-12-05T12:39:01;6.53;;;5.93;;
42742;SDS011;28397;44.552;-0.848;2022-12-05T12:46:44;6.07;;;5.47;;
42742;SDS011;28397;44.552;-0.848;2022-12-05T12:51:40;6.15;;;5.65;;
42742;SDS011;28397;44.552;-0.848;2022-12-05T13:02:35;7.63;;;6.82;;
42742;SDS011;28397;44.552;-0.848;2022-12-05T13:05:29;6.63;;;6.03;;
42742;SDS011;28397;44.552;-0.848;2022-12-05T13:07:57;6.18;;;5.53;;
42742;SDS011;28397;44.552;-0.848;2022-12-05T13:10:42;6.25;;;5.75;;
42742;SDS011;28397;44.552;-0.848;2022-12-05T13:13:21;6.97;;;6.28;;
42742;SDS011;28397;44.552;-0.848;2022-12-05T13:15:54;6.90;;;6.30;;
42742;SDS011;28397;44.552;-0.848;2022-12-05T13:18:23;6.90;;;6.30;;
42742;SDS011;28397;44.552;-0.848;2022-12-05T13:20:56;6.70;;;6.10;;
42742;SDS011;28397;44.552;-0.848;2022-12-05T13:23:24;7.00;;;6.30;;
42742;SDS011;28397;44.552;-0.848;2022-12-05T13:25:54;6.65;;;6.07;;
42742;SDS011;28397;44.552;-0.848;2022-12-05T13:28:31;7.18;;;6.57;;
42742;SDS011;28397;44.552;-0.848;2022-12-05T13:31:06;7.57;;;6.82;;
42742;SDS011;28397;44.552;-0.848;2022-12-05T13:33:34;8.07;;;7.28;;
42742;SDS011;28397;44.552;-0.848;2022-12-05T13:36:15;7.60;;;6.90;;
42742;SDS011;28397;44.552;-0.848;2022-12-05T13:39:03;8.25;;;7.45;;
42742;SDS011;28397;44.552;-0.848;2022-12-05T13:42:06;7.13;;;6.40;;
42742;SDS011;28397;44.552;-0.848;2022-12-05T13:44:48;7.05;;;6.35;;
42742;SDS011;28397;44.552;-0.848;2022-12-05T13:47:30;7.00;;;6.40;;
42742;SDS011;28397;44.552;-0.848;2022-12-05T13:52:41;8.95;;;7.43;;
42742;SDS011;28397;44.552;-0.848;2022-12-05T13:57:44;9.13;;;8.23;;
42742;SDS011;28397;44.552;-0.848;2022-12-05T14:07:49;7.95;;;7.25;;
42742;SDS011;28397;44.552;-0.848;2022-12-05T14:15:42;7.40;;;6.45;;
42742;SDS011;28397;44.552;-0.848;2022-12-05T14:18:30;8.68;;;7.78;;
42742;SDS011;28397;44.552;-0.848;2022-12-05T14:21:19;7.18;;;6.47;;
42742;SDS011;28397;44.552;-0.848;2022-12-05T14:24:06;8.90;;;6.93;;
42742;SDS011;28397;44.552;-0.848;2022-12-05T14:26:55;7.28;;;6.57;;
42742;SDS011;28397;44.552;-0.848;2022-12-05T14:35:16;8.20;;;6.80;;
42742;SDS011;28397;44.552;-0.848;2022-12-05T14:37:37;6.63;;;5.82;;
42742;SDS011;28397;44.552;-0.848;2022-12-05T14:40:19;8.00;;;7.03;;
42742;SDS011;28397;44.552;-0.848;2022-12-05T14:43:19;5.82;;;5.32;;
42742;SDS011;28397;44.552;-0.848;2022-12-05T14:50:45;6.93;;;6.22;;
42742;SDS011;28397;44.552;-0.848;2022-12-05T15:09:35;6.53;;;5.85;;
42742;SDS011;28397;44.552;-0.848;2022-12-05T15:14:58;7.95;;;5.72;;
42742;SDS011;28397;44.552;-0.848;2022-12-05T15:17:36;6.57;;;5.63;;
42742;SDS011;28397;44.552;-0.848;2022-12-05T15:20:31;6.88;;;5.68;;
42742;SDS011;28397;44.552;-0.848;2022-12-05T15:26:28;6.32;;;5.57;;
42742;SDS011;28397;44.552;-0.848;2022-12-05T15:28:58;6.65;;;5.95;;
42742;SDS011;28397;44.552;-0.848;2022-12-05T15:31:48;6.47;;;5.88;;
42742;SDS011;28397;44.552;-0.848;2022-12-05T15:36:49;6.32;;;5.72;;
42742;SDS011;28397;44.552;-0.848;2022-12-05T15:39:55;8.18;;;6.65;;
42742;SDS011;28397;44.552;-0.848;2022-12-05T15:42:48;5.78;;;5.05;;
42742;SDS011;28397;44.552;-0.848;2022-12-05T15:45:19;6.88;;;6.25;;
42742;SDS011;28397;44.552;-0.848;2022-12-05T15:48:09;5.47;;;4.97;;
42742;SDS011;28397;44.552;-0.848;2022-12-05T15:53:08;4.85;;;4.35;;
42742;SDS011;28397;44.552;-0.848;2022-12-05T16:01:10;5.60;;;4.60;;
42742;SDS011;28397;44.552;-0.848;2022-12-05T16:04:04;6.43;;;5.80;;
42742;SDS011;28397;44.552;-0.848;2022-12-05T16:06:38;6.70;;;6.00;;
42742;SDS011;28397;44.552;-0.848;2022-12-05T16:09:08;5.28;;;4.50;;
42742;SDS011;28397;44.552;-0.848;2022-12-05T16:11:42;5.93;;;5.03;;
42742;SDS011;28397;44.552;-0.848;2022-12-05T16:14:22;6.78;;;6.07;;
42742;SDS011;28397;44.552;-0.848;2022-12-05T16:16:56;6.43;;;5.78;;
42742;SDS011;28397;44.552;-0.848;2022-12-05T16:19:24;5.18;;;4.68;;
42742;SDS011;28397;44.552;-0.848;2022-12-05T16:27:12;8.38;;;7.57;;
42742;SDS011;28397;44.552;-0.848;2022-12-05T16:30:07;22.60;;;20.63;;
42742;SDS011;28397;44.552;-0.848;2022-12-05T16:32:36;13.80;;;12.40;;
42742;SDS011;28397;44.552;-0.848;2022-12-05T16:35:03;14.55;;;13.02;;
42742;SDS011;28397;44.552;-0.848;2022-12-05T16:38:04;9.82;;;8.63;;
42742;SDS011;28397;44.552;-0.848;2022-12-05T16:40:33;12.00;;;10.77;;
42742;SDS011;28397;44.552;-0.848;2022-12-05T16:43:00;14.50;;;11.93;;
42742;SDS011;28397;44.552;-0.848;2022-12-05T16:45:37;12.60;;;11.30;;
42742;SDS011;28397;44.552;-0.848;2022-12-05T16:48:18;18.52;;;15.10;;
42742;SDS011;28397;44.552;-0.848;2022-12-05T16:50:49;23.67;;;18.73;;
42742;SDS011;28397;44.552;-0.848;2022-12-05T16:53:18;34.38;;;25.75;;
42742;SDS011;28397;44.552;-0.848;2022-12-05T16:55:46;16.67;;;12.50;;
42742;SDS011;28397;44.552;-0.848;2022-12-05T16:58:20;11.75;;;10.00;;
42742;SDS011;28397;44.552;-0.848;2022-12-05T17:00:49;13.48;;;10.98;;
42742;SDS011;28397;44.552;-0.848;2022-12-05T17:03:15;14.18;;;12.68;;
42742;SDS011;28397;44.552;-0.848;2022-12-05T17:05:41;7.22;;;6.53;;
42742;SDS011;28397;44.552;-0.848;2022-12-05T17:08:07;16.40;;;13.27;;
42742;SDS011;28397;44.552;-0.848;2022-12-05T17:10:33;8.20;;;7.50;;
42742;SDS011;28397;44.552;-0.848;2022-12-05T17:12:58;8.85;;;8.05;;
42742;SDS011;28397;44.552;-0.848;2022-12-05T17:15:25;9.18;;;8.30;;
42742;SDS011;28397;44.552;-0.848;2022-12-05T17:17:51;9.88;;;8.98;;
42742;SDS011;28397;44.552;-0.848;2022-12-05T17:20:17;8.57;;;7.80;;
42742;SDS011;28397;44.552;-0.848;2022-12-05T17:22:42;10.32;;;9.32;;
42742;SDS011;28397;44.552;-0.848;2022-12-05T17:25:19;6.70;;;5.90;;
42742;SDS011;28397;44.552;-0.848;2022-12-05T17:27:54;7.40;;;6.70;;
42742;SDS011;28397;44.552;-0.848;2022-12-05T17:30:21;7.60;;;6.10;;
42742;SDS011;28397;44.552;-0.848;2022-12-05T17:32:48;5.53;;;5.03;;
42742;SDS011;28397;44.552;-0.848;2022-12-05T17:35:15;6.30;;;5.70;;
42742;SDS011;28397;44.552;-0.848;2022-12-05T17:37:41;5.97;;;5.13;;
42742;SDS011;28397;44.552;-0.848;2022-12-05T17:40:07;5.85;;;5.25;;
42742;SDS011;28397;44.552;-0.848;2022-12-05T17:42:33;5.88;;;5.38;;
42742;SDS011;28397;44.552;-0.848;2022-12-05T17:44:59;5.88;;;5.05;;
42742;SDS011;28397;44.552;-0.848;2022-12-05T17:47:25;5.40;;;4.90;;
42742;SDS011;28397;44.552;-0.848;2022-12-05T17:49:51;5.63;;;4.40;;
42742;SDS011;28397;44.552;-0.848;2022-12-05T17:52:16;7.45;;;6.75;;
42742;SDS011;28397;44.552;-0.848;2022-12-05T17:54:42;4.90;;;4.50;;
42742;SDS011;28397;44.552;-0.848;2022-12-05T17:57:08;5.25;;;4.50;;
42742;SDS011;28397;44.552;-0.848;2022-12-05T17:59:33;4.53;;;4.13;;
42742;SDS011;28397;44.552;-0.848;2022-12-05T18:01:59;5.95;;;4.68;;